Search for airport 
image banner adimage banner adimage banner ad
image banner ad

KCIN - Arthur N Neu

Located in Carroll, United States

ICAO - CIN, IATA - CIN

Data provided by Airmate  

General information

Coordinates: N42°2'48" W94°47'19"
Elevation is 1204 feet MSL.
Magnetic variation is 02° East
View others Airports in Iowa

Operational data

Special qualification required
Current time UTC:
Current local time:
Weather
METAR: KCIN 181735Z AUTO VRB05G10KT 10SM CLR 27/18 A2991 RMK AO2
View NOTAMs / SUP AIP / TFR affecting this airport [VIEW]
Communications frequencies: [VIEW]

Runways:

RWY identifierQFULength (ft)Width (ft)SurfaceLDA (ft)
0330°330160CONC
21210°330160CONC
13137°5506100CONC
31317°5506100CONC

Airport contact information

Address: Carroll United States

Other aviation service providers

Flight schools

Carroll Aviation, Inc.

Carroll Aviation, Inc.

Satellite view of KCIN